sensor_id;sensor_type;location;lat;lon;timestamp;pressure;altitude;pressure_sealevel;temperature;humidity
68366;BME280;55283;51.466;5.478;2023-04-05T00:00:25;102300.59;;;21.08;44.04
68366;BME280;55283;51.466;5.478;2023-04-05T00:02:50;102288.59;;;21.08;44.10
68366;BME280;55283;51.466;5.478;2023-04-05T00:05:17;102296.59;;;21.06;44.12
68366;BME280;55283;51.466;5.478;2023-04-05T00:07:55;102301.03;;;21.07;44.03
68366;BME280;55283;51.466;5.478;2023-04-05T00:10:21;102299.81;;;21.08;43.96
68366;BME280;55283;51.466;5.478;2023-04-05T00:12:46;102292.63;;;21.07;43.94
68366;BME280;55283;51.466;5.478;2023-04-05T00:15:12;102303.78;;;21.10;43.63
68366;BME280;55283;51.466;5.478;2023-04-05T00:17:37;102300.19;;;21.06;43.68
68366;BME280;55283;51.466;5.478;2023-04-05T00:20:03;102290.19;;;21.09;43.83
68366;BME280;55283;51.466;5.478;2023-04-05T00:22:31;102291.00;;;21.06;43.95
68366;BME280;55283;51.466;5.478;2023-04-05T00:25:00;102297.81;;;21.05;43.82
68366;BME280;55283;51.466;5.478;2023-04-05T00:27:26;102294.22;;;21.04;43.93
68366;BME280;55283;51.466;5.478;2023-04-05T00:29:51;102289.41;;;21.05;44.12
68366;BME280;55283;51.466;5.478;2023-04-05T00:32:17;102288.63;;;21.04;44.14
68366;BME280;55283;51.466;5.478;2023-04-05T00:34:42;102294.22;;;21.04;43.79
68366;BME280;55283;51.466;5.478;2023-04-05T00:37:08;102296.59;;;21.06;43.80
68366;BME280;55283;51.466;5.478;2023-04-05T00:39:33;102289.41;;;21.05;43.85
68366;BME280;55283;51.466;5.478;2023-04-05T00:42:01;102285.38;;;21.06;43.78
68366;BME280;55283;51.466;5.478;2023-04-05T00:44:27;102284.19;;;21.07;43.68
68366;BME280;55283;51.466;5.478;2023-04-05T00:46:54;102283.38;;;21.06;43.87
68366;BME280;55283;51.466;5.478;2023-04-05T00:49:20;102273.81;;;21.03;43.81
68366;BME280;55283;51.466;5.478;2023-04-05T00:51:46;102279.78;;;21.06;43.87
68366;BME280;55283;51.466;5.478;2023-04-05T00:54:13;102277.41;;;21.04;43.85
68366;BME280;55283;51.466;5.478;2023-04-05T00:56:40;102277.41;;;21.00;43.89
68366;BME280;55283;51.466;5.478;2023-04-05T00:59:05;102269.34;;;21.06;43.66
68366;BME280;55283;51.466;5.478;2023-04-05T01:01:31;102278.59;;;21.07;43.86
68366;BME280;55283;51.466;5.478;2023-04-05T01:04:04;102279.81;;;21.02;43.56
68366;BME280;55283;51.466;5.478;2023-04-05T01:06:58;102287.00;;;21.07;43.81
68366;BME280;55283;51.466;5.478;2023-04-05T01:09:57;102281.41;;;21.07;43.71
68366;BME280;55283;51.466;5.478;2023-04-05T01:12:26;102274.59;;;21.04;43.46
68366;BME280;55283;51.466;5.478;2023-04-05T01:14:54;102274.22;;;21.02;43.90
68366;BME280;55283;51.466;5.478;2023-04-05T01:17:22;102275.41;;;21.05;43.54
68366;BME280;55283;51.466;5.478;2023-04-05T01:19:53;102283.00;;;21.04;43.62
68366;BME280;55283;51.466;5.478;2023-04-05T01:25:56;102276.63;;;21.03;43.72
68366;BME280;55283;51.466;5.478;2023-04-05T01:31:05;102257.78;;;21.00;43.47
68366;BME280;55283;51.466;5.478;2023-04-05T01:33:54;102253.41;;;20.99;43.57
68366;BME280;55283;51.466;5.478;2023-04-05T01:36:29;102262.22;;;20.98;43.83
68366;BME280;55283;51.466;5.478;2023-04-05T01:38:56;102263.84;;;20.95;43.66
68366;BME280;55283;51.466;5.478;2023-04-05T01:41:23;102261.41;;;20.97;43.91
68366;BME280;55283;51.466;5.478;2023-04-05T01:43:49;102260.22;;;20.98;43.70
68366;BME280;55283;51.466;5.478;2023-04-05T01:46:14;102250.19;;;20.97;43.69
68366;BME280;55283;51.466;5.478;2023-04-05T01:48:40;102252.59;;;20.99;43.81
68366;BME280;55283;51.466;5.478;2023-04-05T01:51:05;102251.03;;;20.98;43.70
68366;BME280;55283;51.466;5.478;2023-04-05T01:53:31;102246.22;;;20.98;43.71
68366;BME280;55283;51.466;5.478;2023-04-05T01:56:03;102254.63;;;20.98;43.51
68366;BME280;55283;51.466;5.478;2023-04-05T01:58:28;102248.22;;;20.98;43.62
68366;BME280;55283;51.466;5.478;2023-04-05T02:00:54;102243.41;;;20.98;43.46
68366;BME280;55283;51.466;5.478;2023-04-05T02:03:23;102238.16;;;21.00;43.68
68366;BME280;55283;51.466;5.478;2023-04-05T02:05:49;102244.59;;;21.01;43.34
68366;BME280;55283;51.466;5.478;2023-04-05T02:08:15;102236.97;;;21.01;43.63
68366;BME280;55283;51.466;5.478;2023-04-05T02:10:41;102242.19;;;20.99;43.51
68366;BME280;55283;51.466;5.478;2023-04-05T02:13:06;102240.59;;;20.98;43.40
68366;BME280;55283;51.466;5.478;2023-04-05T02:15:32;102241.00;;;20.97;43.40
68366;BME280;55283;51.466;5.478;2023-04-05T02:17:58;102243.41;;;20.98;43.38
68366;BME280;55283;51.466;5.478;2023-04-05T02:20:27;102237.41;;;20.96;43.34
68366;BME280;55283;51.466;5.478;2023-04-05T02:22:53;102233.38;;;20.97;43.20
68366;BME280;55283;51.466;5.478;2023-04-05T02:25:18;102227.81;;;20.94;43.40
68366;BME280;55283;51.466;5.478;2023-04-05T02:27:44;102233.78;;;20.99;43.51
68366;BME280;55283;51.466;5.478;2023-04-05T02:30:10;102231.00;;;20.96;43.33
68366;BME280;55283;51.466;5.478;2023-04-05T02:32:38;102235.81;;;20.95;43.34
68366;BME280;55283;51.466;5.478;2023-04-05T02:35:04;102224.59;;;20.95;43.47
68366;BME280;55283;51.466;5.478;2023-04-05T02:37:30;102226.63;;;20.95;43.32
68366;BME280;55283;51.466;5.478;2023-04-05T02:39:55;102236.59;;;20.96;43.46
68366;BME280;55283;51.466;5.478;2023-04-05T02:42:20;102225.44;;;20.89;43.52
68366;BME280;55283;51.466;5.478;2023-04-05T02:44:46;102233.41;;;20.94;43.35
68366;BME280;55283;51.466;5.478;2023-04-05T02:47:11;102230.22;;;20.92;43.39
68366;BME280;55283;51.466;5.478;2023-04-05T02:49:37;102226.19;;;20.96;43.65
68366;BME280;55283;51.466;5.478;2023-04-05T02:52:02;102228.59;;;20.94;43.38
68366;BME280;55283;51.466;5.478;2023-04-05T02:54:28;102225.41;;;20.96;43.27
68366;BME280;55283;51.466;5.478;2023-04-05T02:56:53;102220.25;;;20.87;43.50
68366;BME280;55283;51.466;5.478;2023-04-05T02:59:21;102212.63;;;20.88;43.36
68366;BME280;55283;51.466;5.478;2023-04-05T03:01:47;102223.81;;;20.91;43.26
68366;BME280;55283;51.466;5.478;2023-04-05T03:04:12;102218.22;;;20.91;43.45
68366;BME280;55283;51.466;5.478;2023-04-05T03:06:38;102219.44;;;20.90;43.46
68366;BME280;55283;51.466;5.478;2023-04-05T03:09:03;102203.44;;;20.87;43.42
68366;BME280;55283;51.466;5.478;2023-04-05T03:11:29;102210.59;;;20.92;43.42
68366;BME280;55283;51.466;5.478;2023-04-05T03:13:55;102202.22;;;20.88;43.37
68366;BME280;55283;51.466;5.478;2023-04-05T03:16:21;102209.44;;;20.89;43.34
68366;BME280;55283;51.466;5.478;2023-04-05T03:18:47;102203.41;;;20.91;43.39
68366;BME280;55283;51.466;5.478;2023-04-05T03:21:13;102197.78;;;20.91;43.24
68366;BME280;55283;51.466;5.478;2023-04-05T03:23:42;102192.63;;;20.89;43.56
68366;BME280;55283;51.466;5.478;2023-04-05T03:26:10;102202.59;;;20.90;43.14
68366;BME280;55283;51.466;5.478;2023-04-05T03:28:37;102201.41;;;20.91;43.26
68366;BME280;55283;51.466;5.478;2023-04-05T03:31:02;102199.00;;;20.90;43.23
68366;BME280;55283;51.466;5.478;2023-04-05T03:33:28;102194.59;;;20.89;43.24
68366;BME280;55283;51.466;5.478;2023-04-05T03:35:53;102189.00;;;20.89;43.42
68366;BME280;55283;51.466;5.478;2023-04-05T03:38:19;102195.81;;;20.88;43.18
68366;BME280;55283;51.466;5.478;2023-04-05T03:40:44;102196.63;;;20.88;43.29
68366;BME280;55283;51.466;5.478;2023-04-05T03:43:10;102188.19;;;20.88;43.22
68366;BME280;55283;51.466;5.478;2023-04-05T03:45:35;102191.00;;;20.88;43.34
68366;BME280;55283;51.466;5.478;2023-04-05T03:48:01;102193.44;;;20.86;43.36
68366;BME280;55283;51.466;5.478;2023-04-05T03:50:27;102190.25;;;20.84;43.32
68366;BME280;55283;51.466;5.478;2023-04-05T03:52:52;102189.03;;;20.85;43.24
68366;BME280;55283;51.466;5.478;2023-04-05T03:55:18;102177.81;;;20.85;43.40
68366;BME280;55283;51.466;5.478;2023-04-05T03:57:44;102179.81;;;20.85;43.43
68366;BME280;55283;51.466;5.478;2023-04-05T04:00:10;102180.63;;;20.85;43.39
68366;BME280;55283;51.466;5.478;2023-04-05T04:02:47;102182.25;;;20.83;43.44
68366;BME280;55283;51.466;5.478;2023-04-05T04:05:14;102178.59;;;20.86;43.31
68366;BME280;55283;51.466;5.478;2023-04-05T04:07:41;102172.63;;;20.84;43.23
68366;BME280;55283;51.466;5.478;2023-04-05T04:10:08;102177.44;;;20.83;43.43
68366;BME280;55283;51.466;5.478;2023-04-05T04:12:35;102174.25;;;20.81;43.26
68366;BME280;55283;51.466;5.478;2023-04-05T04:15:00;102169.06;;;20.79;43.45
68366;BME280;55283;51.466;5.478;2023-04-05T04:17:30;102171.47;;;20.81;43.40
68366;BME280;55283;51.466;5.478;2023-04-05T04:19:57;102175.44;;;20.80;43.35
68366;BME280;55283;51.466;5.478;2023-04-05T04:22:24;102174.66;;;20.83;43.37
68366;BME280;55283;51.466;5.478;2023-04-05T04:25:11;102165.84;;;20.81;43.19
68366;BME280;55283;51.466;5.478;2023-04-05T04:27:42;102151.91;;;20.70;43.41
68366;BME280;55283;51.466;5.478;2023-04-05T04:30:12;102167.47;;;20.78;43.30
68366;BME280;55283;51.466;5.478;2023-04-05T04:32:40;102168.25;;;20.79;43.21
68366;BME280;55283;51.466;5.478;2023-04-05T04:35:23;102171.06;;;20.79;43.42
68366;BME280;55283;51.466;5.478;2023-04-05T04:37:56;102180.28;;;20.76;43.22
68366;BME280;55283;51.466;5.478;2023-04-05T04:40:28;102173.47;;;20.77;43.37
68366;BME280;55283;51.466;5.478;2023-04-05T04:42:57;102179.06;;;20.77;43.23
68366;BME280;55283;51.466;5.478;2023-04-05T04:45:25;102174.28;;;20.77;43.56
68366;BME280;55283;51.466;5.478;2023-04-05T04:47:51;102173.47;;;20.77;43.21
68366;BME280;55283;51.466;5.478;2023-04-05T04:50:18;102174.28;;;20.77;43.21
68366;BME280;55283;51.466;5.478;2023-04-05T04:52:45;102169.50;;;20.74;43.35
68366;BME280;55283;51.466;5.478;2023-04-05T04:55:11;102164.28;;;20.76;43.33
68366;BME280;55283;51.466;5.478;2023-04-05T04:57:41;102167.09;;;20.73;43.40
68366;BME280;55283;51.466;5.478;2023-04-05T05:00:08;102176.69;;;20.75;43.45
68366;BME280;55283;51.466;5.478;2023-04-05T05:02:38;102169.50;;;20.74;43.39
68366;BME280;55283;51.466;5.478;2023-04-05T05:05:05;102170.31;;;20.75;43.50
68366;BME280;55283;51.466;5.478;2023-04-05T05:07:31;102173.91;;;20.75;43.35
68366;BME280;55283;51.466;5.478;2023-04-05T05:09:57;102171.13;;;20.72;43.51
68366;BME280;55283;51.466;5.478;2023-04-05T05:12:22;102167.09;;;20.73;43.57
68366;BME280;55283;51.466;5.478;2023-04-05T05:14:48;102168.69;;;20.74;43.38
68366;BME280;55283;51.466;5.478;2023-04-05T05:17:13;102166.72;;;20.74;43.32
68366;BME280;55283;51.466;5.478;2023-04-05T05:19:40;102164.31;;;20.73;43.33
68366;BME280;55283;51.466;5.478;2023-04-05T05:22:05;102168.31;;;20.72;43.27
68366;BME280;55283;51.466;5.478;2023-04-05T05:24:30;102166.34;;;20.69;43.28
68366;BME280;55283;51.466;5.478;2023-04-05T05:26:56;102166.31;;;20.72;43.36
68366;BME280;55283;51.466;5.478;2023-04-05T05:29:22;102161.09;;;20.71;43.47
68366;BME280;55283;51.466;5.478;2023-04-05T05:31:47;102158.31;;;20.71;43.83
68366;BME280;55283;51.466;5.478;2023-04-05T05:34:12;102165.09;;;20.73;43.51
68366;BME280;55283;51.466;5.478;2023-04-05T05:36:38;102159.38;;;20.88;43.11
68366;BME280;55283;51.466;5.478;2023-04-05T05:39:03;102157.31;;;20.95;43.19
68366;BME280;55283;51.466;5.478;2023-04-05T05:41:32;102152.47;;;20.99;42.98
68366;BME280;55283;51.466;5.478;2023-04-05T05:43:58;102157.28;;;20.99;43.22
68366;BME280;55283;51.466;5.478;2023-04-05T05:46:24;102156.50;;;20.98;43.39
68366;BME280;55283;51.466;5.478;2023-04-05T05:48:50;102155.72;;;20.98;43.85
68366;BME280;55283;51.466;5.478;2023-04-05T05:51:15;102154.88;;;21.01;43.45
68366;BME280;55283;51.466;5.478;2023-04-05T05:53:43;102158.91;;;20.96;43.78
68366;BME280;55283;51.466;5.478;2023-04-05T05:56:09;102167.28;;;21.03;44.65
68366;BME280;55283;51.466;5.478;2023-04-05T05:58:34;102168.00;;;21.11;43.83
68366;BME280;55283;51.466;5.478;2023-04-05T06:01:01;102164.84;;;21.06;43.75
68366;BME280;55283;51.466;5.478;2023-04-05T06:03:28;102176.44;;;21.08;43.64
68366;BME280;55283;51.466;5.478;2023-04-05T06:05:58;102173.25;;;21.06;44.12
68366;BME280;55283;51.466;5.478;2023-04-05T06:08:25;102172.81;;;21.11;44.26
68366;BME280;55283;51.466;5.478;2023-04-05T06:10:52;102175.56;;;21.14;44.35
68366;BME280;55283;51.466;5.478;2023-04-05T06:13:18;102171.19;;;21.17;44.37
68366;BME280;55283;51.466;5.478;2023-04-05T06:15:44;102171.97;;;21.21;44.71
68366;BME280;55283;51.466;5.478;2023-04-05T06:18:10;102185.19;;;21.17;43.69
68366;BME280;55283;51.466;5.478;2023-04-05T06:20:35;102186.78;;;21.14;42.39
68366;BME280;55283;51.466;5.478;2023-04-05T06:23:06;102175.63;;;21.11;43.15
68366;BME280;55283;51.466;5.478;2023-04-05T06:25:31;102185.72;;;20.97;36.65
68366;BME280;55283;51.466;5.478;2023-04-05T06:27:57;102188.69;;;20.76;33.79
68366;BME280;55283;51.466;5.478;2023-04-05T06:30:24;102177.69;;;20.47;31.23
68366;BME280;55283;51.466;5.478;2023-04-05T06:32:49;102171.38;;;20.25;29.70
68366;BME280;55283;51.466;5.478;2023-04-05T06:35:22;102173.94;;;19.84;28.64
68366;BME280;55283;51.466;5.478;2023-04-05T06:37:47;102173.63;;;19.57;26.46
68366;BME280;55283;51.466;5.478;2023-04-05T06:40:13;102185.22;;;19.41;26.59
68366;BME280;55283;51.466;5.478;2023-04-05T06:42:39;102174.06;;;19.16;26.61
68366;BME280;55283;51.466;5.478;2023-04-05T06:45:05;102171.69;;;19.14;27.34
68366;BME280;55283;51.466;5.478;2023-04-05T06:47:38;102180.06;;;19.00;25.75
68366;BME280;55283;51.466;5.478;2023-04-05T06:50:05;102175.25;;;18.93;26.68
68366;BME280;55283;51.466;5.478;2023-04-05T06:52:32;102182.44;;;18.91;26.99
68366;BME280;55283;51.466;5.478;2023-04-05T06:54:57;102179.66;;;19.05;28.16
68366;BME280;55283;51.466;5.478;2023-04-05T06:57:23;102182.84;;;19.32;29.37
68366;BME280;55283;51.466;5.478;2023-04-05T06:59:50;102178.81;;;19.51;29.66
68366;BME280;55283;51.466;5.478;2023-04-05T07:02:16;102184.41;;;19.65;30.83
68366;BME280;55283;51.466;5.478;2023-04-05T07:04:41;102187.19;;;19.76;31.77
68366;BME280;55283;51.466;5.478;2023-04-05T07:07:07;102182.75;;;19.86;32.80
68366;BME280;55283;51.466;5.478;2023-04-05T07:09:32;102189.91;;;19.94;32.91
68366;BME280;55283;51.466;5.478;2023-04-05T07:11:58;102187.06;;;20.01;33.52
68366;BME280;55283;51.466;5.478;2023-04-05T07:14:24;102184.28;;;20.05;33.49
68366;BME280;55283;51.466;5.478;2023-04-05T07:16:50;102185.84;;;20.09;33.98
68366;BME280;55283;51.466;5.478;2023-04-05T07:19:17;102185.81;;;20.13;33.56
68366;BME280;55283;51.466;5.478;2023-04-05T07:21:43;102181.78;;;20.21;33.97
68366;BME280;55283;51.466;5.478;2023-04-05T07:24:08;102185.38;;;20.29;34.42
68366;BME280;55283;51.466;5.478;2023-04-05T07:26:35;102188.13;;;20.36;35.73
68366;BME280;55283;51.466;5.478;2023-04-05T07:29:02;102189.69;;;20.48;36.01
68366;BME280;55283;51.466;5.478;2023-04-05T07:31:28;102188.06;;;20.50;35.60
68366;BME280;55283;51.466;5.478;2023-04-05T07:33:54;102181.63;;;20.57;35.86
68366;BME280;55283;51.466;5.478;2023-04-05T07:36:19;102183.19;;;20.62;35.89
68366;BME280;55283;51.466;5.478;2023-04-05T07:38:45;102182.75;;;20.67;35.94
68366;BME280;55283;51.466;5.478;2023-04-05T07:41:11;102173.53;;;20.70;35.89
68366;BME280;55283;51.466;5.478;2023-04-05T07:43:36;102178.72;;;20.75;35.88
68366;BME280;55283;51.466;5.478;2023-04-05T07:46:02;102182.66;;;20.81;35.99
68366;BME280;55283;51.466;5.478;2023-04-05T07:48:28;102181.44;;;20.82;36.26
68366;BME280;55283;51.466;5.478;2023-04-05T07:50:54;102171.84;;;20.83;36.32
68366;BME280;55283;51.466;5.478;2023-04-05T07:53:20;102175.81;;;20.86;36.31
68366;BME280;55283;51.466;5.478;2023-04-05T07:55:45;102180.97;;;20.91;36.21
68366;BME280;55283;51.466;5.478;2023-04-05T07:58:11;102176.16;;;20.91;37.25
68366;BME280;55283;51.466;5.478;2023-04-05T08:00:37;102178.97;;;20.91;36.69
68366;BME280;55283;51.466;5.478;2023-04-05T08:03:03;102171.34;;;20.92;36.68
68366;BME280;55283;51.466;5.478;2023-04-05T08:05:31;102172.94;;;20.96;36.73
68366;BME280;55283;51.466;5.478;2023-04-05T08:07:56;102174.91;;;20.99;36.79
68366;BME280;55283;51.466;5.478;2023-04-05T08:10:25;102160.09;;;20.99;37.25
68366;BME280;55283;51.466;5.478;2023-04-05T08:12:51;102167.63;;;21.06;36.84
68366;BME280;55283;51.466;5.478;2023-04-05T08:15:17;102176.41;;;21.11;37.18
68366;BME280;55283;51.466;5.478;2023-04-05T08:17:42;102178.78;;;21.16;37.38
68366;BME280;55283;51.466;5.478;2023-04-05T08:20:08;102175.56;;;21.18;37.37
68366;BME280;55283;51.466;5.478;2023-04-05T08:22:34;102166.34;;;21.17;37.71
68366;BME280;55283;51.466;5.478;2023-04-05T08:24:59;102177.56;;;21.21;37.62
68366;BME280;55283;51.466;5.478;2023-04-05T08:27:25;102177.88;;;21.30;37.79
68366;BME280;55283;51.466;5.478;2023-04-05T08:29:50;102173.47;;;21.29;37.32
68366;BME280;55283;51.466;5.478;2023-04-05T08:32:15;102169.47;;;21.30;37.93
68366;BME280;55283;51.466;5.478;2023-04-05T08:34:41;102174.25;;;21.33;37.92
68366;BME280;55283;51.466;5.478;2023-04-05T08:37:06;102179.38;;;21.38;37.57
68366;BME280;55283;51.466;5.478;2023-04-05T08:39:34;102166.53;;;21.41;37.74
68366;BME280;55283;51.466;5.478;2023-04-05T08:42:03;102171.31;;;21.44;37.95
68366;BME280;55283;51.466;5.478;2023-04-05T08:44:35;102159.28;;;21.43;37.63
68366;BME280;55283;51.466;5.478;2023-04-05T08:47:01;102156.88;;;21.45;37.96
68366;BME280;55283;51.466;5.478;2023-04-05T08:49:26;102166.03;;;21.50;37.93
68366;BME280;55283;51.466;5.478;2023-04-05T08:51:54;102163.22;;;21.53;38.21
68366;BME280;55283;51.466;5.478;2023-04-05T08:54:19;102163.16;;;21.57;38.13
68366;BME280;55283;51.466;5.478;2023-04-05T08:56:46;102163.97;;;21.57;38.42
68366;BME280;55283;51.466;5.478;2023-04-05T08:59:15;102165.94;;;21.60;38.47
68366;BME280;55283;51.466;5.478;2023-04-05T09:01:42;102166.31;;;21.62;38.64
68366;BME280;55283;51.466;5.478;2023-04-05T09:04:22;102163.47;;;21.66;38.55
68366;BME280;55283;51.466;5.478;2023-04-05T09:06:54;102157.47;;;21.64;38.74
68366;BME280;55283;51.466;5.478;2023-04-05T09:09:22;102168.63;;;21.71;38.87
68366;BME280;55283;51.466;5.478;2023-04-05T09:11:47;102159.38;;;21.74;38.69
68366;BME280;55283;51.466;5.478;2023-04-05T09:14:13;102155.38;;;21.72;39.06
68366;BME280;55283;51.466;5.478;2023-04-05T09:16:40;102141.75;;;21.70;38.96
68366;BME280;55283;51.466;5.478;2023-04-05T09:19:07;102156.47;;;21.81;38.80
68366;BME280;55283;51.466;5.478;2023-04-05T09:21:58;102156.84;;;21.83;38.80
68366;BME280;55283;51.466;5.478;2023-04-05T09:24:32;102148.03;;;21.81;39.12
68366;BME280;55283;51.466;5.478;2023-04-05T09:27:18;102149.22;;;21.84;39.08
68366;BME280;55283;51.466;5.478;2023-04-05T09:29:48;102140.41;;;21.82;39.03
68366;BME280;55283;51.466;5.478;2023-04-05T09:32:15;102148.03;;;21.81;39.45
68366;BME280;55283;51.466;5.478;2023-04-05T09:34:41;102140.84;;;21.80;38.94
68366;BME280;55283;51.466;5.478;2023-04-05T09:37:15;102147.63;;;21.83;39.14
68366;BME280;55283;51.466;5.478;2023-04-05T09:39:42;102132.38;;;21.84;38.75
68366;BME280;55283;51.466;5.478;2023-04-05T09:42:15;102129.16;;;21.85;39.11
68366;BME280;55283;51.466;5.478;2023-04-05T09:44:57;102146.31;;;21.95;39.04
68366;BME280;55283;51.466;5.478;2023-04-05T09:47:30;102142.66;;;21.98;38.88
68366;BME280;55283;51.466;5.478;2023-04-05T09:50:00;102145.09;;;21.96;39.19
68366;BME280;55283;51.466;5.478;2023-04-05T09:52:27;102143.44;;;21.98;39.19
68366;BME280;55283;51.466;5.478;2023-04-05T09:54:56;102141.44;;;21.99;39.20
68366;BME280;55283;51.466;5.478;2023-04-05T09:57:22;102141.81;;;22.01;39.14
68366;BME280;55283;51.466;5.478;2023-04-05T09:59:48;102137.78;;;22.02;39.19
68366;BME280;55283;51.466;5.478;2023-04-05T10:02:14;102141.81;;;22.01;39.24
68366;BME280;55283;51.466;5.478;2023-04-05T10:04:41;102135.94;;;21.88;39.46
68366;BME280;55283;51.466;5.478;2023-04-05T10:07:12;102125.19;;;21.83;39.66
68366;BME280;55283;51.466;5.478;2023-04-05T10:09:42;102128.38;;;21.81;39.99
68366;BME280;55283;51.466;5.478;2023-04-05T10:12:10;102118.44;;;21.77;40.35
68366;BME280;55283;51.466;5.478;2023-04-05T10:14:37;102119.63;;;21.79;40.80
68366;BME280;55283;51.466;5.478;2023-04-05T10:17:13;102119.50;;;21.86;41.55
68366;BME280;55283;51.466;5.478;2023-04-05T10:20:09;102119.50;;;21.90;41.27
68366;BME280;55283;51.466;5.478;2023-04-05T10:22:40;102110.25;;;21.89;41.27
68366;BME280;55283;51.466;5.478;2023-04-05T10:28:03;102103.19;;;21.78;41.57
68366;BME280;55283;51.466;5.478;2023-04-05T10:30:34;102099.59;;;21.77;42.01
68366;BME280;55283;51.466;5.478;2023-04-05T10:35:34;102099.84;;;21.90;42.22
68366;BME280;55283;51.466;5.478;2023-04-05T10:40:35;102100.25;;;21.88;42.04
68366;BME280;55283;51.466;5.478;2023-04-05T10:43:02;102111.41;;;21.96;41.98
68366;BME280;55283;51.466;5.478;2023-04-05T10:45:28;102096.16;;;21.97;42.01
68366;BME280;55283;51.466;5.478;2023-04-05T10:48:06;102097.75;;;21.98;41.84
68366;BME280;55283;51.466;5.478;2023-04-05T10:50:38;102086.91;;;21.96;41.78
68366;BME280;55283;51.466;5.478;2023-04-05T10:53:05;102102.06;;;22.02;41.67
68366;BME280;55283;51.466;5.478;2023-04-05T10:55:31;102088.84;;;22.03;41.57
68366;BME280;55283;51.466;5.478;2023-04-05T10:57:58;102093.63;;;22.06;41.61
68366;BME280;55283;51.466;5.478;2023-04-05T11:00:24;102089.22;;;22.05;41.68
68366;BME280;55283;51.466;5.478;2023-04-05T11:02:54;102083.97;;;22.07;41.56
68366;BME280;55283;51.466;5.478;2023-04-05T11:05:29;102080.38;;;22.06;41.36
68366;BME280;55283;51.466;5.478;2023-04-05T11:08:08;102082.75;;;22.08;41.75
68366;BME280;55283;51.466;5.478;2023-04-05T11:10:37;102080.75;;;22.08;41.46
68366;BME280;55283;51.466;5.478;2023-04-05T11:13:05;102073.19;;;22.05;41.44
68366;BME280;55283;51.466;5.478;2023-04-05T11:15:32;102075.53;;;22.07;41.59
68366;BME280;55283;51.466;5.478;2023-04-05T11:23:22;102076.66;;;22.13;41.28
68366;BME280;55283;51.466;5.478;2023-04-05T11:25:55;102069.88;;;22.10;41.41
68366;BME280;55283;51.466;5.478;2023-04-05T11:28:42;102069.47;;;22.12;41.50
68366;BME280;55283;51.466;5.478;2023-04-05T11:31:16;102065.44;;;22.13;41.34
68366;BME280;55283;51.466;5.478;2023-04-05T11:36:28;102057.78;;;22.13;41.38
68366;BME280;55283;51.466;5.478;2023-04-05T11:41:46;102054.19;;;22.13;41.19
68366;BME280;55283;51.466;5.478;2023-04-05T11:44:15;102048.63;;;22.09;41.20
68366;BME280;55283;51.466;5.478;2023-04-05T11:46:41;102041.00;;;22.10;41.14
68366;BME280;55283;51.466;5.478;2023-04-05T11:49:07;102045.72;;;22.17;41.16
68366;BME280;55283;51.466;5.478;2023-04-05T11:51:33;102032.09;;;22.15;41.13
68366;BME280;55283;51.466;5.478;2023-04-05T11:53:59;102029.22;;;22.19;40.80
68366;BME280;55283;51.466;5.478;2023-04-05T11:56:24;102031.97;;;22.22;40.58
68366;BME280;55283;51.466;5.478;2023-04-05T11:58:50;102018.78;;;22.19;40.62
68366;BME280;55283;51.466;5.478;2023-04-05T12:01:16;102029.16;;;22.22;40.76
68366;BME280;55283;51.466;5.478;2023-04-05T12:03:42;102022.69;;;22.25;40.67
68366;BME280;55283;51.466;5.478;2023-04-05T12:06:07;102022.69;;;22.25;40.63
68366;BME280;55283;51.466;5.478;2023-04-05T12:08:43;102011.06;;;22.27;40.73
68366;BME280;55283;51.466;5.478;2023-04-05T12:11:28;102010.63;;;22.28;40.57
68366;BME280;55283;51.466;5.478;2023-04-05T12:13:56;102010.63;;;22.28;40.46
68366;BME280;55283;51.466;5.478;2023-04-05T12:16:23;102009.81;;;22.28;40.69
68366;BME280;55283;51.466;5.478;2023-04-05T12:18:59;102007.38;;;22.30;40.48
68366;BME280;55283;51.466;5.478;2023-04-05T12:21:25;102011.00;;;22.30;40.33
68366;BME280;55283;51.466;5.478;2023-04-05T12:23:52;101995.38;;;22.29;40.35
68366;BME280;55283;51.466;5.478;2023-04-05T12:26:18;101990.94;;;22.28;40.53
68366;BME280;55283;51.466;5.478;2023-04-05T12:31:34;101994.13;;;22.30;40.55
68366;BME280;55283;51.466;5.478;2023-04-05T12:33:59;101983.75;;;22.27;40.39
68366;BME280;55283;51.466;5.478;2023-04-05T12:36:27;101985.72;;;22.30;40.32
68366;BME280;55283;51.466;5.478;2023-04-05T12:38:56;101982.91;;;22.30;40.31
68366;BME280;55283;51.466;5.478;2023-04-05T12:41:28;101973.69;;;22.30;40.38
68366;BME280;55283;51.466;5.478;2023-04-05T12:43:54;101984.13;;;22.29;40.14
68366;BME280;55283;51.466;5.478;2023-04-05T12:46:45;101976.50;;;22.30;40.32
68366;BME280;55283;51.466;5.478;2023-04-05T12:49:15;101967.44;;;22.19;40.14
68366;BME280;55283;51.466;5.478;2023-04-05T12:51:42;101978.63;;;22.22;40.31
68366;BME280;55283;51.466;5.478;2023-04-05T12:54:17;101963.41;;;22.20;40.66
68366;BME280;55283;51.466;5.478;2023-04-05T12:56:44;101971.78;;;22.23;40.57
68366;BME280;55283;51.466;5.478;2023-04-05T12:59:10;101973.38;;;22.24;40.83
68366;BME280;55283;51.466;5.478;2023-04-05T13:01:37;101958.91;;;22.26;40.63
68366;BME280;55283;51.466;5.478;2023-04-05T13:04:02;101966.59;;;22.22;40.39
68366;BME280;55283;51.466;5.478;2023-04-05T13:06:29;101955.34;;;22.22;40.65
68366;BME280;55283;51.466;5.478;2023-04-05T13:08:55;101956.94;;;22.23;40.77
68366;BME280;55283;51.466;5.478;2023-04-05T13:11:21;101949.75;;;22.22;40.83
68366;BME280;55283;51.466;5.478;2023-04-05T13:13:47;101947.00;;;22.18;40.71
68366;BME280;55283;51.466;5.478;2023-04-05T13:16:13;101949.38;;;22.20;40.72
68366;BME280;55283;51.466;5.478;2023-04-05T13:18:38;101944.13;;;22.22;40.76
68366;BME280;55283;51.466;5.478;2023-04-05T13:21:04;101941.31;;;22.22;40.84